Time;durP1;ratioP1;P1;durP2;ratioP2;P2;SDS_P1;SDS_P2;PMS_P1;PMS_P2;Temp;Humidity;BMP_temperature;BMP_pressure;BME280_temperature;BME280_humidity;BME280_pressure;Samples;Min_cycle;Max_cycle;Signal;HPM_P1;HPM_P2
2024/02/23 00:01:58;;;;;;;0.63;0.60;;;7.30;75.30;;;8.80;56.75;95636.72;5014024;28;20050;-59
2024/02/23 00:04:25;;;;;;;1.13;0.80;;;7.30;75.20;;;8.69;56.65;95632.03;5031237;28;20041;-60
2024/02/23 00:06:53;;;;;;;2.17;1.00;;;7.30;73.90;;;8.69;56.76;95630.19;5013310;28;20139;-60
2024/02/23 00:09:21;;;;;;;1.40;0.83;;;7.30;74.50;;;8.65;56.34;95637.72;5031596;28;20525;-60
2024/02/23 00:11:49;;;;;;;1.50;0.70;;;7.20;73.60;;;8.67;56.42;95635.66;5014205;28;20053;-59
2024/02/23 00:14:18;;;;;;;0.87;0.70;;;7.20;73.80;;;8.66;56.11;95626.06;5031618;28;20049;-59
2024/02/23 00:16:46;;;;;;;2.03;0.57;;;7.30;73.80;;;8.60;55.70;95634.00;5030795;28;20490;-60
2024/02/23 00:19:16;;;;;;;1.07;0.70;;;7.20;72.30;;;8.64;55.87;95625.44;5031420;28;20041;-60
2024/02/23 00:21:47;;;;;;;3.97;1.20;;;7.20;72.80;;;8.64;55.47;95628.09;5023508;28;20411;-60
2024/02/23 00:24:16;;;;;;;2.73;0.87;;;7.30;71.30;;;8.46;55.00;95633.13;5031591;28;20072;-60
2024/02/23 00:26:44;;;;;;;4.50;1.13;;;7.20;69.90;;;8.44;54.69;95640.47;5023019;28;20052;-59
2024/02/23 00:29:12;;;;;;;2.73;0.90;;;7.10;69.60;;;8.47;54.71;95634.75;5030858;28;20045;-60
2024/02/23 00:31:40;;;;;;;3.10;0.80;;;7.10;70.60;;;8.56;54.54;95659.28;5030942;28;20491;-60
2024/02/23 00:34:13;;;;;;;2.77;0.80;;;7.10;70.10;;;8.59;54.14;95658.91;5031035;28;20049;-59
2024/02/23 00:36:41;;;;;;;2.93;1.20;;;7.20;69.90;;;8.57;54.47;95674.16;5029942;28;20060;-60
2024/02/23 00:39:09;;;;;;;0.67;0.60;;;7.10;69.90;;;8.53;54.33;95679.09;5030887;28;20052;-60
2024/02/23 00:41:37;;;;;;;1.90;0.73;;;7.10;69.70;;;8.56;53.97;95707.84;5030831;28;20076;-59
2024/02/23 00:44:05;;;;;;;4.00;1.27;;;7.10;68.50;;;8.56;53.46;95691.94;5030628;28;20049;-60
2024/02/23 00:46:33;;;;;;;3.40;0.73;;;7.10;68.20;;;8.49;53.54;95683.13;5013260;28;20049;-60
2024/02/23 00:49:02;;;;;;;1.83;0.70;;;7.10;68.30;;;8.48;53.85;95674.34;5030562;28;20049;-59
2024/02/23 00:51:30;;;;;;;2.57;0.80;;;7.10;69.20;;;8.51;53.81;95685.56;5030533;28;20049;-60
2024/02/23 00:53:57;;;;;;;2.47;0.77;;;7.10;67.90;;;8.51;53.58;95678.47;5030776;28;20053;-60
2024/02/23 00:56:25;;;;;;;3.00;0.70;;;7.10;68.50;;;8.51;53.64;95685.56;5013228;28;20399;-60
2024/02/23 00:59:02;;;;;;;5.27;1.00;;;7.10;68.30;;;8.52;53.52;95705.78;5030531;28;20487;-60
2024/02/23 01:01:31;;;;;;;3.60;0.80;;;7.20;67.80;;;8.49;53.38;95712.28;5012410;28;20530;-59
2024/02/23 01:03:59;;;;;;;1.30;0.90;;;7.10;68.20;;;8.49;53.24;95714.94;5030552;28;20037;-59
2024/02/23 01:06:28;;;;;;;2.83;0.90;;;7.10;68.10;;;8.54;53.09;95707.22;5013011;28;20052;-59
2024/02/23 01:08:56;;;;;;;3.50;1.23;;;7.10;67.50;;;8.46;53.26;95712.69;5030147;28;20060;-58
2024/02/23 01:11:23;;;;;;;2.00;1.00;;;7.10;68.30;;;8.48;52.97;95697.41;5030398;28;20053;-59
2024/02/23 01:13:51;;;;;;;2.13;0.60;;;7.10;67.70;;;8.50;52.82;95697.22;5030189;28;20041;-58
2024/02/23 01:16:19;;;;;;;1.70;0.70;;;7.10;66.90;;;8.47;53.27;95706.34;5030441;28;20041;-58
2024/02/23 01:18:47;;;;;;;1.50;0.87;;;7.10;67.60;;;8.50;52.93;95697.22;5030066;28;20046;-59
2024/02/23 01:21:15;;;;;;;2.37;1.30;;;7.10;67.70;;;8.48;53.04;95692.91;5030721;28;20086;-59
2024/02/23 01:23:43;;;;;;;3.17;0.70;;;7.10;67.20;;;8.45;52.88;95688.00;5030412;28;20501;-58
2024/02/23 01:26:10;;;;;;;2.83;0.97;;;7.00;67.50;;;8.45;53.13;95700.44;5030476;28;20042;-59
2024/02/23 01:28:38;;;;;;;2.53;0.93;;;7.00;68.20;;;8.49;53.17;95714.94;5029827;28;20049;-58
2024/02/23 01:31:10;;;;;;;2.10;0.80;;;7.00;67.60;;;8.56;53.01;95712.34;5028455;28;20076;-58
2024/02/23 01:33:39;;;;;;;1.63;1.00;;;7.10;67.60;;;8.60;52.89;95717.03;5032367;28;20049;-58
2024/02/23 01:36:07;;;;;;;1.33;0.63;;;7.10;67.80;;;8.54;52.88;95717.84;5034036;28;20052;-58
2024/02/23 01:38:35;;;;;;;1.30;0.70;;;7.10;68.40;;;8.60;53.11;95724.19;5016181;28;20049;-58
2024/02/23 01:41:04;;;;;;;3.40;1.03;;;7.10;68.70;;;8.63;53.16;95723.81;5033892;28;20041;-58
2024/02/23 01:43:31;;;;;;;0.90;0.70;;;7.10;68.50;;;8.64;53.21;95734.19;5033912;28;20529;-59
2024/02/23 01:45:59;;;;;;;3.63;0.93;;;7.10;68.40;;;8.67;53.78;95738.31;5034044;28;20045;-58
2024/02/23 01:48:27;;;;;;;1.07;0.80;;;7.10;68.50;;;8.65;53.22;95738.50;5015769;28;20044;-58
2024/02/23 01:50:55;;;;;;;1.30;0.80;;;7.10;68.70;;;8.60;53.21;95746.22;5033928;28;20041;-58
2024/02/23 01:53:25;;;;;;;2.27;1.50;;;7.10;68.90;;;8.62;53.87;95757.44;5016157;28;20056;-58
2024/02/23 01:55:54;;;;;;;1.20;0.77;;;7.10;69.50;;;8.71;53.55;95760.78;5021783;28;20056;-58
2024/02/23 01:58:22;;;;;;;2.37;0.87;;;7.20;70.20;;;8.72;53.84;95756.28;5011678;28;20057;-59
2024/02/23 02:00:49;;;;;;;1.67;0.87;;;7.20;71.30;;;8.71;54.30;95758.13;5040202;28;20041;-59
2024/02/23 02:03:17;;;;;;;3.37;0.90;;;7.20;71.50;;;8.71;54.70;95763.44;5016099;28;20395;-58
2024/02/23 02:05:45;;;;;;;3.30;1.13;;;7.20;72.40;;;8.69;54.52;95752.19;5033565;28;20495;-59
2024/02/23 02:08:13;;;;;;;0.60;0.60;;;7.10;72.60;;;8.50;55.23;95748.41;5039743;28;20042;-59
2024/02/23 02:10:42;;;;;;;2.43;0.80;;;7.00;73.20;;;8.51;55.12;95759.84;5015928;28;20045;-58
2024/02/23 02:13:10;;;;;;;1.00;0.70;;;6.90;73.50;;;8.56;54.87;95758.25;5033366;28;20041;-58
2024/02/23 02:15:37;;;;;;;1.57;0.80;;;7.00;74.10;;;8.47;54.90;95762.88;5033884;28;20514;-59
2024/02/23 02:18:05;;;;;;;2.07;0.70;;;6.90;73.90;;;8.35;55.65;95768.88;5033798;28;20068;-58
2024/02/23 02:20:35;;;;;;;0.40;0.40;;;6.80;74.30;;;8.38;55.40;95763.19;5015633;28;20049;-59
2024/02/23 02:23:03;;;;;;;1.23;0.70;;;6.70;75.10;;;8.32;55.50;95764.78;5015922;28;20041;-58
2024/02/23 02:25:31;;;;;;;2.23;0.60;;;6.70;75.30;;;8.33;55.66;95768.25;5014901;28;20041;-58
2024/02/23 02:27:59;;;;;;;1.10;0.50;;;6.70;75.50;;;8.28;55.72;95761.69;5032957;28;20414;-58
2024/02/23 02:30:26;;;;;;;2.37;0.60;;;6.70;75.30;;;8.29;55.58;95762.50;5033253;28;20041;-58
2024/02/23 02:32:54;;;;;;;2.40;0.97;;;6.70;75.10;;;8.31;55.77;95760.47;5015560;28;20042;-60
2024/02/23 02:35:22;;;;;;;1.07;0.60;;;6.70;75.20;;;8.30;55.76;95758.88;5032843;28;20068;-58
2024/02/23 02:37:49;;;;;;;0.43;0.43;;;6.70;74.90;;;8.32;55.60;95764.78;5014889;28;20049;-58
2024/02/23 02:40:17;;;;;;;0.67;0.53;;;6.70;74.50;;;8.33;55.75;95758.47;5033207;28;20513;-59
2024/02/23 02:42:44;;;;;;;1.80;0.93;;;6.70;75.10;;;8.26;55.50;95769.03;5014893;28;20426;-57
2024/02/23 02:45:12;;;;;;;3.27;1.10;;;6.60;73.70;;;8.31;55.55;95754.38;5032308;28;20044;-58
2024/02/23 02:47:40;;;;;;;2.53;0.67;;;6.60;74.60;;;8.33;55.44;95744.38;5032215;28;20038;-58
2024/02/23 02:50:09;;;;;;;0.50;0.50;;;6.60;74.30;;;8.35;55.21;95745.00;5032779;28;20041;-58
2024/02/23 02:52:37;;;;;;;0.70;0.50;;;6.60;74.30;;;8.27;55.02;95732.72;5032615;28;20048;-58
2024/02/23 02:55:04;;;;;;;1.97;0.53;;;6.60;72.40;;;8.24;55.16;95738.44;5032661;28;20061;-58
2024/02/23 02:57:32;;;;;;;1.33;0.80;;;6.60;73.10;;;8.26;54.97;95749.66;5032175;28;20487;-58
2024/02/23 03:00:00;;;;;;;2.70;0.53;;;6.60;73.00;;;8.28;54.85;95752.94;5031960;28;20049;-58
2024/02/23 03:02:27;;;;;;;1.90;0.70;;;6.60;72.00;;;8.33;54.51;95760.28;5032586;28;20042;-59
2024/02/23 03:04:55;;;;;;;0.93;0.70;;;6.70;71.70;;;8.29;54.22;95762.50;5032524;28;20499;-58
2024/02/23 03:07:23;;;;;;;2.97;0.50;;;6.70;70.40;;;8.29;54.32;95754.56;5031892;28;20086;-59
2024/02/23 03:09:50;;;;;;;1.80;0.93;;;6.60;70.50;;;8.31;54.21;95762.31;5032309;28;20041;-59
2024/02/23 03:12:18;;;;;;;0.93;0.60;;;6.70;70.60;;;8.32;53.84;95753.34;5014914;28;20041;-59
2024/02/23 03:14:46;;;;;;;1.83;1.00;;;6.70;69.60;;;8.31;53.73;95751.72;5032008;28;20525;-59
2024/02/23 03:17:14;;;;;;;0.57;0.57;;;6.70;69.70;;;8.35;53.55;95759.09;5014310;28;20052;-58
2024/02/23 03:19:41;;;;;;;0.73;0.50;;;6.70;69.60;;;8.38;53.57;95764.00;5031810;28;20045;-59
2024/02/23 03:22:09;;;;;;;1.60;0.60;;;6.80;69.10;;;8.41;53.09;95747.75;5032202;28;20037;-59
2024/02/23 03:24:37;;;;;;;2.53;0.50;;;6.80;67.80;;;8.36;52.82;95739.53;5032026;28;20048;-59
2024/02/23 03:27:05;;;;;;;1.27;0.67;;;6.70;68.00;;;8.34;52.95;95749.50;5031837;28;20048;-59
2024/02/23 03:29:33;;;;;;;0.47;0.47;;;6.70;67.30;;;8.34;52.91;95741.56;5031855;28;20414;-59
2024/02/23 03:32:01;;;;;;;0.70;0.53;;;6.70;68.20;;;8.09;51.50;95747.28;5024188;28;20060;-59
2024/02/23 03:34:29;;;;;;;2.10;1.03;;;6.50;65.00;;;8.04;52.03;95752.31;5031729;28;20045;-59
2024/02/23 03:36:58;;;;;;;1.10;1.00;;;6.50;67.00;;;8.07;52.09;95757.25;5030574;28;20044;-59
2024/02/23 03:39:25;;;;;;;2.63;1.13;;;6.50;66.40;;;8.05;52.28;95743.38;5031984;28;20041;-58
2024/02/23 03:41:53;;;;;;;0.70;0.70;;;6.40;67.00;;;8.14;52.44;95737.94;5031626;28;20038;-59
2024/02/23 03:44:21;;;;;;;2.27;0.80;;;6.50;67.70;;;8.19;52.47;95727.56;5031931;28;20037;-59
2024/02/23 03:46:49;;;;;;;1.07;0.70;;;6.50;67.70;;;8.19;52.09;95744.28;5031278;28;20049;-58
2024/02/23 03:49:17;;;;;;;3.60;0.93;;;6.60;67.00;;;8.20;52.12;95761.84;5031859;28;20050;-58
2024/02/23 03:51:45;;;;;;;1.73;1.00;;;6.60;67.00;;;8.12;51.76;95748.72;5031348;28;20049;-59
2024/02/23 03:54:12;;;;;;;0.67;0.40;;;6.50;66.20;;;8.00;51.90;95752.91;5013458;28;20075;-59
2024/02/23 03:56:41;;;;;;;1.60;0.80;;;6.40;66.20;;;8.06;51.98;95760.09;5030592;28;20422;-58
2024/02/23 03:59:10;;;;;;;1.63;0.73;;;6.40;66.00;;;8.06;51.45;95765.38;5031442;28;20490;-59
2024/02/23 04:01:40;;;;;;;0.60;0.60;;;6.40;66.50;;;8.04;51.64;95765.56;5031189;28;20060;-59
2024/02/23 04:04:08;;;;;;;2.47;0.70;;;6.40;66.00;;;8.08;51.28;95773.97;5031908;28;20037;-59
2024/02/23 04:06:36;;;;;;;1.90;0.77;;;6.50;65.70;;;7.99;51.06;95769.84;5031127;28;20052;-59
2024/02/23 04:09:05;;;;;;;1.87;0.63;;;6.40;64.20;;;7.96;51.39;95771.00;5023290;28;20487;-58
2024/02/23 04:11:33;;;;;;;2.87;0.90;;;6.30;65.30;;;7.91;51.12;95757.53;5031811;28;20050;-58
2024/02/23 04:14:01;;;;;;;2.30;0.83;;;6.30;64.50;;;7.92;50.87;95753.84;5031651;28;20064;-58
2024/02/23 04:16:29;;;;;;;2.43;0.80;;;6.40;64.00;;;7.95;50.93;95757.94;5031369;28;20049;-58
2024/02/23 04:18:57;;;;;;;2.60;0.87;;;6.30;63.90;;;7.91;50.68;95759.34;5030694;28;20049;-59
2024/02/23 04:21:25;;;;;;;2.23;0.67;;;6.40;63.80;;;7.88;50.56;95765.84;5013408;28;20038;-59
2024/02/23 04:23:53;;;;;;;1.37;0.80;;;6.30;63.50;;;7.89;50.50;95764.84;5030992;28;20045;-58
2024/02/23 04:26:20;;;;;;;0.93;0.73;;;6.30;63.20;;;7.91;50.21;95765.47;5013302;28;20049;-59
2024/02/23 04:28:48;;;;;;;2.93;1.10;;;6.30;63.20;;;7.85;49.94;95774.16;5030492;28;20529;-58
2024/02/23 04:31:16;;;;;;;4.03;0.83;;;6.30;61.80;;;7.87;50.18;95761.53;5027935;28;20045;-58
2024/02/23 04:33:43;;;;;;;5.07;1.20;;;6.30;62.70;;;7.90;50.02;95761.19;5030245;28;20477;-59
2024/02/23 04:36:11;;;;;;;1.80;0.80;;;6.30;63.00;;;7.85;49.40;95755.63;5031041;28;20048;-59
2024/02/23 04:38:38;;;;;;;3.03;0.73;;;6.30;62.20;;;7.89;50.01;95757.72;5030591;28;20422;-58
2024/02/23 04:41:07;;;;;;;3.50;0.87;;;6.30;62.60;;;7.88;49.54;95757.91;5005615;28;20072;-60
2024/02/23 04:43:34;;;;;;;1.70;0.80;;;6.30;61.60;;;7.86;49.51;95750.13;5030578;28;20037;-58
2024/02/23 04:46:02;;;;;;;2.23;1.07;;;6.20;61.20;;;7.87;49.40;95759.75;5030738;28;20037;-59
2024/02/23 04:48:33;;;;;;;1.40;0.80;;;6.20;61.60;;;7.89;49.44;95772.81;5012657;28;20044;-58
2024/02/23 04:51:00;;;;;;;2.23;1.10;;;6.20;61.30;;;7.86;49.74;95773.16;5030502;28;20629;-58
2024/02/23 04:53:28;;;;;;;1.47;0.60;;;6.20;60.90;;;7.89;49.10;95762.22;5030789;28;20447;-58
2024/02/23 04:55:56;;;;;;;1.97;0.80;;;6.20;61.10;;;7.89;48.98;95770.97;5030694;28;20530;-59
2024/02/23 04:58:24;;;;;;;1.07;0.87;;;6.20;61.30;;;7.90;48.87;95769.13;5030191;28;20045;-59
2024/02/23 05:00:51;;;;;;;1.30;1.17;;;6.20;61.00;;;7.88;48.95;95757.91;5030574;28;20038;-58
2024/02/23 05:03:19;;;;;;;0.77;0.57;;;6.20;61.00;;;7.88;48.73;95763.19;5030328;28;20030;-58
2024/02/23 05:05:48;;;;;;;1.17;0.67;;;6.20;60.70;;;7.86;48.83;95762.56;5031261;28;20053;-59
2024/02/23 05:08:16;;;;;;;3.10;1.00;;;6.10;60.80;;;7.86;48.63;95765.22;5023773;28;20045;-58
2024/02/23 05:10:43;;;;;;;2.90;0.97;;;6.20;60.70;;;7.86;48.35;95759.94;5034412;28;20053;-58
2024/02/23 05:13:11;;;;;;;1.30;0.90;;;6.10;59.80;;;7.86;48.89;95754.63;5034356;28;20049;-58
2024/02/23 05:15:38;;;;;;;1.77;0.80;;;6.10;60.60;;;7.85;48.79;95752.97;5034576;28;20107;-58
2024/02/23 05:18:06;;;;;;;2.80;1.07;;;6.10;61.30;;;7.86;48.84;95757.28;5016148;28;20141;-58
2024/02/23 05:20:34;;;;;;;0.67;0.67;;;6.00;61.10;;;7.83;48.09;95763.78;5034353;28;20037;-59
2024/02/23 05:23:02;;;;;;;2.23;1.00;;;6.00;60.80;;;7.83;48.71;95761.13;5034303;28;20216;-58
2024/02/23 05:25:30;;;;;;;2.03;0.83;;;6.00;60.70;;;7.81;48.66;95754.38;5034380;28;20048;-58
2024/02/23 05:27:57;;;;;;;2.47;0.83;;;6.00;61.20;;;7.79;48.49;95759.03;5033891;28;20050;-58
2024/02/23 05:30:27;;;;;;;0.50;0.50;;;6.00;60.50;;;7.76;48.52;95752.28;5016726;28;20060;-58
2024/02/23 05:32:55;;;;;;;2.53;0.77;;;6.00;61.70;;;7.78;48.65;95766.16;5016933;28;20506;-58
2024/02/23 05:35:22;;;;;;;2.47;0.90;;;6.00;60.90;;;7.75;48.59;95769.19;5033368;28;20415;-58
2024/02/23 05:37:50;;;;;;;2.57;1.10;;;5.90;61.00;;;7.75;48.76;95776.31;5033495;28;20487;-58
2024/02/23 05:40:18;;;;;;;1.50;0.77;;;5.90;61.70;;;7.74;48.75;95775.50;5034185;28;20037;-58
2024/02/23 05:42:46;;;;;;;2.70;0.80;;;5.90;61.90;;;7.73;48.39;95781.81;5016328;28;20049;-58
2024/02/23 05:45:13;;;;;;;2.87;1.00;;;5.90;61.30;;;7.73;48.57;95783.63;5034021;28;20037;-59
2024/02/23 05:47:41;;;;;;;0.70;0.70;;;6.00;61.80;;;7.73;48.79;95783.63;5033369;28;20455;-58
2024/02/23 05:50:15;;;;;;;1.98;0.95;;;6.00;61.90;;;7.73;48.72;95781.81;5009361;28;20068;-58
2024/02/23 05:52:42;;;;;;;3.80;0.73;;;5.90;61.90;;;7.72;48.57;95780.19;5033951;28;20152;-59
2024/02/23 05:55:10;;;;;;;4.43;1.00;;;5.90;61.90;;;7.70;48.71;95779.53;5016085;28;20045;-58
2024/02/23 05:57:38;;;;;;;1.27;0.67;;;5.90;61.70;;;7.67;48.84;95779.91;5015809;28;20460;-58
2024/02/23 06:00:07;;;;;;;0.90;0.70;;;5.90;61.60;;;7.67;49.17;95782.56;5033352;28;20438;-58
2024/02/23 06:02:38;;;;;;;3.15;0.70;;;5.90;62.10;;;7.65;48.78;95782.75;5016766;28;20030;-58
2024/02/23 06:05:07;;;;;;;2.27;0.60;;;5.90;61.20;;;7.64;48.88;95789.06;5033457;28;20069;-58
2024/02/23 06:07:36;;;;;;;0.77;0.70;;;5.80;62.20;;;7.64;49.10;95794.38;5015574;28;20048;-58
2024/02/23 06:10:05;;;;;;;1.17;0.80;;;5.80;62.40;;;7.61;48.83;95796.56;5033377;28;20046;-58
2024/02/23 06:12:32;;;;;;;3.83;1.03;;;5.80;62.10;;;7.58;48.99;95796.91;5015864;28;20086;-58
2024/02/23 06:15:00;;;;;;;3.07;0.80;;;5.70;62.60;;;7.54;49.32;95801.78;5033598;28;20060;-59
2024/02/23 06:17:28;;;;;;;2.23;1.10;;;5.70;63.00;;;7.53;48.99;95809.94;4999278;28;20430;-59
2024/02/23 06:19:58;;;;;;;1.20;1.10;;;5.70;63.20;;;7.53;49.07;95810.72;5015120;28;20050;-59
2024/02/23 06:22:26;;;;;;;3.53;1.80;;;5.70;63.50;;;7.52;49.52;95821.50;5033385;28;20491;-59
2024/02/23 06:24:53;;;;;;;4.13;0.93;;;5.60;63.90;;;7.52;49.33;95818.84;5032968;28;20490;-59
2024/02/23 06:27:21;;;;;;;3.07;1.10;;;5.60;64.20;;;7.48;49.71;95811.31;5032885;28;20417;-59
2024/02/23 06:29:50;;;;;;;0.93;0.80;;;5.60;64.80;;;7.49;49.71;95818.22;5033088;28;20060;-59
2024/02/23 06:32:17;;;;;;;2.17;1.00;;;5.60;64.80;;;7.48;49.78;95829.84;5025211;28;20541;-59
2024/02/23 06:34:46;;;;;;;1.37;0.97;;;5.60;65.00;;;7.45;49.97;95838.16;5032968;28;20048;-58
2024/02/23 06:37:13;;;;;;;3.43;1.30;;;5.60;65.00;;;7.44;50.18;95841.81;5014187;28;20525;-59
2024/02/23 06:39:42;;;;;;;2.37;1.00;;;5.50;65.20;;;7.41;49.86;95838.72;5032992;28;20171;-59
2024/02/23 06:42:09;;;;;;;1.73;0.83;;;5.50;65.00;;;7.38;49.66;95837.22;5032781;28;20109;-59
2024/02/23 06:44:37;;;;;;;1.20;0.77;;;5.50;65.40;;;7.36;50.12;95833.94;5032424;28;20060;-59
2024/02/23 06:47:06;;;;;;;1.80;0.90;;;5.50;65.70;;;7.34;50.05;95838.63;5032278;28;20050;-59
2024/02/23 06:49:34;;;;;;;5.07;1.13;;;5.50;65.80;;;7.32;50.04;95845.91;5032593;28;20410;-58
2024/02/23 06:52:02;;;;;;;1.53;0.80;;;5.40;65.80;;;7.29;50.20;95841.81;5033213;28;20045;-59
2024/02/23 06:54:29;;;;;;;2.40;0.90;;;5.40;66.00;;;7.27;50.30;95849.13;5032714;28;20049;-58
2024/02/23 06:56:57;;;;;;;3.23;0.90;;;5.30;66.10;;;7.25;50.54;95840.56;5032228;28;20053;-60
2024/02/23 06:59:25;;;;;;;1.87;1.00;;;5.30;66.50;;;7.26;50.45;95850.13;5015098;28;20037;-59
2024/02/23 07:01:53;;;;;;;3.57;1.17;;;5.30;66.50;;;7.25;50.61;95839.72;5032328;28;20042;-59
2024/02/23 07:04:21;;;;;;;2.43;1.87;;;5.30;66.70;;;7.27;50.48;95841.19;5007204;28;20033;-60
2024/02/23 07:06:48;;;;;;;1.30;0.80;;;5.40;66.90;;;7.28;50.48;95845.47;5014586;28;20065;-59
2024/02/23 07:09:16;;;;;;;3.00;1.33;;;5.40;66.70;;;7.30;51.05;95847.94;5032370;28;20045;-59
2024/02/23 07:11:45;;;;;;;3.03;1.23;;;5.40;66.80;;;7.30;50.77;95847.94;5032225;28;20053;-60
2024/02/23 07:14:14;;;;;;;6.37;1.73;;;5.30;66.80;;;7.30;50.82;95854.03;5032272;28;20042;-59
2024/02/23 07:16:42;;;;;;;2.07;1.00;;;5.40;66.80;;;7.30;50.75;95861.16;5032084;28;20052;-59
2024/02/23 07:19:10;;;;;;;1.77;1.50;;;5.40;67.10;;;7.30;50.97;95851.41;5031907;28;20045;-59
2024/02/23 07:21:37;;;;;;;5.03;1.33;;;5.40;67.30;;;7.36;51.17;95846.38;5032032;28;20069;-59
2024/02/23 07:24:10;;;;;;;1.40;0.87;;;5.50;68.00;;;7.37;50.94;95851.50;5032104;28;20406;-59
2024/02/23 07:26:37;;;;;;;3.40;1.30;;;5.50;67.40;;;7.38;51.65;95847.81;5032282;28;20041;-59
2024/02/23 07:29:07;;;;;;;2.70;1.00;;;5.50;68.00;;;7.39;51.31;95848.66;5031528;28;20048;-59
2024/02/23 07:31:35;;;;;;;5.30;1.33;;;5.50;68.60;;;7.41;51.81;95851.94;5029807;28;20037;-60
2024/02/23 07:34:02;;;;;;;4.83;1.40;;;5.50;69.20;;;7.41;51.71;95852.75;5029417;28;20064;-60
2024/02/23 07:36:30;;;;;;;2.27;1.20;;;5.40;69.50;;;7.43;51.87;95855.22;5031946;28;20052;-58
2024/02/23 07:38:58;;;;;;;3.73;1.20;;;5.50;69.70;;;7.45;51.81;95853.22;5031433;28;20081;-58
2024/02/23 07:41:26;;;;;;;1.97;0.93;;;5.50;69.70;;;7.45;51.79;95856.69;5031866;28;20045;-59
2024/02/23 07:43:54;;;;;;;3.90;1.80;;;5.60;69.80;;;7.43;51.92;95848.09;5030832;28;20056;-59
2024/02/23 07:46:22;;;;;;;5.27;2.80;;;5.50;70.00;;;7.41;52.35;95844.00;5031588;28;20053;-59
2024/02/23 07:48:54;;;;;;;6.47;2.83;;;5.50;70.10;;;7.40;52.31;95845.81;5031403;28;20045;-59
2024/02/23 07:51:21;;;;;;;5.10;2.23;;;5.50;70.50;;;7.42;52.57;95848.28;5031148;28;20068;-59
2024/02/23 07:53:49;;;;;;;3.23;2.23;;;5.40;70.60;;;7.38;52.45;95849.66;5030854;28;20418;-59
2024/02/23 07:56:17;;;;;;;3.83;1.53;;;5.40;71.20;;;7.39;52.50;95840.72;5030284;28;20397;-58
2024/02/23 07:58:45;;;;;;;9.20;5.93;;;5.40;71.00;;;7.40;52.32;95842.34;5031196;28;20049;-58
2024/02/23 08:01:14;;;;;;;3.17;2.30;;;5.50;71.10;;;7.42;52.31;95841.16;5031164;28;20049;-58
2024/02/23 08:03:42;;;;;;;1.93;1.53;;;5.50;70.90;;;7.44;52.01;95839.16;5030947;28;20053;-57
2024/02/23 08:06:12;;;;;;;2.83;1.33;;;5.60;70.60;;;7.42;52.26;95848.28;5031123;28;20045;-59
2024/02/23 08:08:40;;;;;;;1.63;1.23;;;5.60;70.40;;;7.39;52.36;95852.13;5030928;28;20445;-59
2024/02/23 08:11:08;;;;;;;1.70;1.43;;;5.50;70.30;;;7.36;52.37;95852.47;5030954;28;20050;-60
2024/02/23 08:13:36;;;;;;;2.17;1.23;;;5.50;70.60;;;7.35;52.38;95856.16;5031279;28;20045;-60
2024/02/23 08:16:03;;;;;;;2.30;1.40;;;5.50;71.30;;;7.36;52.84;95862.25;5012983;28;20072;-60
2024/02/23 08:18:32;;;;;;;2.00;1.27;;;5.50;70.70;;;7.33;52.89;95863.47;5030663;28;20049;-58
2024/02/23 08:21:02;;;;;;;2.43;0.83;;;5.40;71.00;;;7.33;52.53;95857.31;5031099;28;20653;-58
2024/02/23 08:23:30;;;;;;;1.20;1.00;;;5.40;70.80;;;7.31;52.78;95862.81;5023213;28;20042;-58
2024/02/23 08:25:58;;;;;;;1.57;0.80;;;5.40;71.00;;;7.30;53.01;95858.53;5013246;28;20056;-58
2024/02/23 08:28:26;;;;;;;0.80;0.80;;;5.40;71.10;;;7.29;52.89;95851.59;5030714;28;20041;-59
2024/02/23 08:30:53;;;;;;;4.03;1.57;;;5.40;71.20;;;7.30;53.13;95855.88;5031074;28;20038;-58
2024/02/23 08:33:21;;;;;;;1.73;1.40;;;5.40;71.20;;;7.34;52.96;95848.38;5030914;28;20517;-58
2024/02/23 08:35:49;;;;;;;1.77;1.10;;;5.50;71.40;;;7.35;52.74;95850.84;5029667;28;20060;-59
2024/02/23 08:38:18;;;;;;;3.83;1.67;;;5.50;70.80;;;7.35;53.14;95840.28;5030376;28;20046;-58
2024/02/23 08:40:46;;;;;;;3.27;1.27;;;5.50;70.60;;;7.35;52.97;95832.31;5030479;28;20049;-58
2024/02/23 08:43:14;;;;;;;4.27;2.27;;;5.60;70.40;;;7.35;52.96;95823.53;5030245;28;20056;-58
2024/02/23 08:45:42;;;;;;;5.27;2.20;;;5.60;70.10;;;7.37;52.71;95806.50;5030684;28;20048;-58
2024/02/23 08:48:14;;;;;;;3.47;2.57;;;5.60;69.50;;;7.39;52.43;95814.25;5030018;28;20491;-59
2024/02/23 08:50:42;;;;;;;3.30;2.00;;;5.60;69.00;;;7.40;52.21;95813.22;5030915;28;20041;-58
2024/02/23 08:53:10;;;;;;;1.70;1.33;;;5.70;68.70;;;7.40;52.17;95810.59;5030754;28;20037;-58
2024/02/23 08:55:38;;;;;;;3.23;1.13;;;5.60;68.30;;;7.40;52.42;95821.16;5012969;28;20056;-59
2024/02/23 08:58:09;;;;;;;1.90;1.00;;;5.60;68.50;;;7.42;52.27;95829.75;5030182;28;20060;-59
2024/02/23 09:00:37;;;;;;;2.50;1.23;;;5.60;68.90;;;7.40;52.45;95832.56;5030638;28;20049;-59
2024/02/23 09:03:05;;;;;;;1.27;0.80;;;5.60;68.90;;;7.43;52.52;95832.22;5030650;28;20045;-60
2024/02/23 09:05:32;;;;;;;1.20;1.00;;;5.70;69.60;;;7.45;52.63;95824.09;5030205;28;20049;-60
2024/02/23 09:08:00;;;;;;;5.63;1.50;;;5.70;70.00;;;7.49;52.54;95834.13;5029960;28;20049;-59
2024/02/23 09:10:28;;;;;;;4.17;1.40;;;5.80;70.30;;;7.54;52.99;95841.53;5030442;28;20041;-59
2024/02/23 09:12:55;;;;;;;2.07;1.10;;;5.80;70.50;;;7.58;53.05;95850.72;5030468;28;20049;-60
2024/02/23 09:15:23;;;;;;;3.10;1.20;;;5.90;71.10;;;7.63;53.05;95856.28;5030514;28;20049;-60
2024/02/23 09:17:50;;;;;;;2.27;0.93;;;5.90;71.50;;;7.67;53.18;95854.06;5030152;28;20494;-59
2024/02/23 09:20:18;;;;;;;1.23;1.03;;;6.00;71.50;;;7.69;53.56;95852.06;5030309;28;20056;-59
2024/02/23 09:22:46;;;;;;;2.73;1.80;;;6.10;71.00;;;7.69;53.44;95854.69;5030406;28;20452;-58
2024/02/23 09:25:13;;;;;;;3.60;1.30;;;6.20;70.10;;;7.71;53.40;95849.22;5030334;28;20045;-58
2024/02/23 09:27:43;;;;;;;3.93;1.83;;;6.20;69.90;;;7.77;53.46;95854.59;5030053;28;20418;-58
2024/02/23 09:30:13;;;;;;;3.53;1.70;;;6.30;70.20;;;7.78;53.26;95843.00;5030689;28;20042;-58
2024/02/23 09:32:41;;;;;;;2.97;1.07;;;6.30;70.00;;;7.81;53.32;95849.75;5036813;28;20041;-59
2024/02/23 09:35:09;;;;;;;4.33;1.37;;;6.30;69.40;;;7.86;53.18;95837.56;5030156;28;20041;-58
2024/02/23 09:37:36;;;;;;;2.60;1.43;;;6.50;68.70;;;7.92;53.31;95840.47;5029887;28;20081;-58
2024/02/23 09:40:05;;;;;;;6.83;1.30;;;6.50;68.30;;;7.97;52.95;95846.03;5030336;28;20041;-58
2024/02/23 09:42:35;;;;;;;4.07;0.93;;;6.60;68.00;;;8.04;53.03;95847.72;5004792;28;20042;-59
2024/02/23 09:45:04;;;;;;;3.87;1.30;;;6.60;68.30;;;8.15;53.25;95841.13;5030055;28;20418;-58
2024/02/23 09:47:32;;;;;;;6.40;1.67;;;6.70;68.80;;;8.24;53.10;95844.47;5012476;28;20068;-58
2024/02/23 09:50:03;;;;;;;4.00;1.43;;;6.80;67.90;;;8.35;52.88;95845.78;5029867;28;20073;-59
2024/02/23 09:52:32;;;;;;;3.17;1.40;;;6.90;68.00;;;8.45;53.08;95852.44;5012807;28;20064;-58
2024/02/23 09:55:00;;;;;;;4.23;1.40;;;7.00;67.60;;;8.54;52.74;95849.63;5014928;28;20060;-59
2024/02/23 09:57:27;;;;;;;3.50;1.00;;;7.10;67.20;;;8.57;52.42;95851.88;5015656;28;20045;-59
2024/02/23 09:59:55;;;;;;;2.90;0.90;;;7.10;66.20;;;8.63;52.12;95849.28;5033830;28;20521;-59
2024/02/23 10:02:23;;;;;;;3.73;1.33;;;7.10;65.80;;;8.71;51.99;95850.19;5033481;28;20148;-59
2024/02/23 10:04:54;;;;;;;5.03;1.30;;;7.20;65.60;;;8.79;52.15;95852.69;5015695;28;20494;-58
2024/02/23 10:07:21;;;;;;;3.67;0.90;;;7.30;65.50;;;8.79;51.63;95858.78;5015598;28;20061;-59
2024/02/23 10:09:49;;;;;;;3.73;1.10;;;7.30;64.80;;;8.78;51.58;95859.81;5033730;28;20042;-58
2024/02/23 10:12:17;;;;;;;5.20;1.43;;;7.30;64.70;;;8.81;51.10;95854.13;5033515;28;20068;-58
2024/02/23 10:14:45;;;;;;;2.40;0.90;;;7.40;64.30;;;8.83;51.27;95854.75;5032799;28;20057;-59
2024/02/23 10:17:13;;;;;;;7.43;1.70;;;7.40;64.50;;;8.87;51.19;95850.69;5032841;28;20060;-58
2024/02/23 10:19:41;;;;;;;2.70;1.50;;;7.40;64.20;;;8.90;50.90;95848.66;5033150;28;20056;-58
2024/02/23 10:22:09;;;;;;;5.73;1.20;;;7.50;63.50;;;8.87;51.01;95855.97;5033082;28;20060;-59
2024/02/23 10:24:37;;;;;;;2.60;1.20;;;7.50;63.80;;;8.92;50.95;95865.19;5032995;28;20045;-59
2024/02/23 10:27:04;;;;;;;1.63;1.13;;;7.50;63.40;;;8.91;50.98;95869.69;5032819;28;20057;-59
2024/02/23 10:29:32;;;;;;;3.63;1.07;;;7.60;63.50;;;8.93;50.60;95867.66;5032860;28;20052;-58
2024/02/23 10:32:03;;;;;;;2.63;1.20;;;7.60;63.00;;;8.97;50.75;95863.59;5024839;28;20056;-59
2024/02/23 10:34:31;;;;;;;3.43;1.20;;;7.60;63.60;;;9.07;50.80;95873.88;5011925;28;20049;-59
2024/02/23 10:36:59;;;;;;;5.17;1.20;;;7.60;64.40;;;9.13;50.53;95864.31;5015213;28;20499;-59